Terminal Aerodrome Forecast
Issued by NWS

Home | Current Version | Previous Version | Graphics & Text | Print | Product List | Glossary On
Versions: 1 2 3 4 5 6 7 8 9 10 11 12 13 14 15 16 17 18 19 20 21 22 23 24 25 26 27 28 29 30 31 32 33 34
000
FTUS43 KLOT 190900 AAB
TAFORD
TAF AMD
KORD 190900Z 1909/2012 21008KT P6SM BKN050 BKN250
     FM191000 21008KT 6SM BR VCTS BKN035CB OVC050
     FM191200 22009KT 6SM BR SCT015 BKN035
     FM191700 24012G20KT P6SM VCSH BKN035 PROB30 1919/1922 4SM TSRA
      BKN025CB
     FM192200 27012G20KT P6SM BKN040
     FM200100 29006KT P6SM SCT040=

USA.gov is the U.S. government's official web portal to all federal, state and local government web resources and services.